createdAt,value
2023-01-21T00:02:19.936Z,66.75
2023-01-21T00:07:23.019Z,67.24
2023-01-21T00:12:26.036Z,67.78
2023-01-21T00:17:34.146Z,68.01
2023-01-21T00:22:37.321Z,67.63
2023-01-21T00:27:40.885Z,67.40
2023-01-21T00:32:43.895Z,67.38
2023-01-21T00:37:46.882Z,68.03
2023-01-21T00:42:49.901Z,67.77
2023-01-21T00:47:52.889Z,68.18
2023-01-21T00:52:55.911Z,67.36
2023-01-21T00:57:58.919Z,67.94
2023-01-21T01:03:02.099Z,67.80
2023-01-21T01:08:05.289Z,68.26
2023-01-21T01:13:08.427Z,68.58
2023-01-21T01:18:11.504Z,68.58
2023-01-21T01:23:14.699Z,68.75
2023-01-21T01:28:17.759Z,67.86
2023-01-21T01:33:20.987Z,68.65
2023-01-21T01:38:24.071Z,69.05
2023-01-21T01:43:48.228Z,67.83
2023-01-21T01:48:57.821Z,68.18
2023-01-21T01:54:01.401Z,68.36
2023-01-21T01:59:07.815Z,69.02
2023-01-21T02:04:17.393Z,69.19
2023-01-21T02:09:20.511Z,68.61
2023-01-21T02:14:23.523Z,68.40
2023-01-21T02:19:42.395Z,68.33
2023-01-21T02:25:04.267Z,68.58
2023-01-21T02:30:32.914Z,68.15
2023-01-21T02:35:39.613Z,68.62
2023-01-21T02:41:07.175Z,68.14
2023-01-21T02:46:20.383Z,68.70
2023-01-21T02:51:24.340Z,69.37
2023-01-21T02:56:28.190Z,68.24
2023-01-21T03:01:47.672Z,68.79
2023-01-21T03:07:20.749Z,68.87
2023-01-21T03:12:41.940Z,68.11
2023-01-21T03:17:47.683Z,68.76
2023-01-21T03:22:55.188Z,68.59
2023-01-21T03:28:00.897Z,67.69
2023-01-21T03:33:05.254Z,68.53
2023-01-21T03:38:20.028Z,68.15
2023-01-21T03:43:23.447Z,68.61
2023-01-21T03:48:33.796Z,68.37
2023-01-21T03:53:36.842Z,68.40
2023-01-21T03:58:39.851Z,67.94
2023-01-21T04:03:43.779Z,68.98
2023-01-21T04:08:47.358Z,67.84
2023-01-21T04:13:50.329Z,69.11
2023-01-21T04:18:54.379Z,69.09
2023-01-21T04:23:57.389Z,69.10
2023-01-21T04:29:00.389Z,68.20
2023-01-21T04:34:03.437Z,68.14
2023-01-21T04:39:06.584Z,67.83
2023-01-21T04:44:09.729Z,68.92
2023-01-21T04:49:12.695Z,68.80
2023-01-21T04:54:15.796Z,68.52
2023-01-21T04:59:25.734Z,67.93
2023-01-21T05:04:48.946Z,67.82
2023-01-21T05:09:52.022Z,67.30
2023-01-21T05:14:58.032Z,67.40
2023-01-21T05:25:23.490Z,66.55
2023-01-21T05:30:26.534Z,65.83
2023-01-21T05:40:50.963Z,66.12
2023-01-21T05:45:54.145Z,66.07
2023-01-21T05:50:58.451Z,65.09
2023-01-21T05:56:01.618Z,64.37
2023-01-21T06:01:04.739Z,63.97
2023-01-21T06:06:08.164Z,63.16
2023-01-21T06:11:11.178Z,63.03
2023-01-21T06:16:14.205Z,62.77
2023-01-21T06:21:17.394Z,62.37
2023-01-21T06:26:20.509Z,62.22
2023-01-21T06:31:24.550Z,61.38
2023-01-21T06:36:27.663Z,60.79
2023-01-21T06:41:30.647Z,60.65
2023-01-21T06:46:33.938Z,59.82
2023-01-21T06:51:37.039Z,60.51
2023-01-21T06:56:41.375Z,59.66
2023-01-21T07:01:44.735Z,59.37
2023-01-21T07:06:47.759Z,58.70
2023-01-21T07:11:50.852Z,58.07
2023-01-21T07:16:54.022Z,58.55
2023-01-21T07:21:57.015Z,57.64
2023-01-21T07:27:00.107Z,57.74
2023-01-21T07:32:03.247Z,57.98
2023-01-21T07:37:06.339Z,57.44
2023-01-21T07:42:10.986Z,56.17
2023-01-21T07:47:17.274Z,57.02
2023-01-21T07:52:20.327Z,56.22
2023-01-21T07:57:23.343Z,56.80
2023-01-21T08:02:26.620Z,57.23
2023-01-21T08:07:29.765Z,55.58
2023-01-21T08:12:32.829Z,55.31
2023-01-21T08:17:39.602Z,56.10
2023-01-21T08:22:42.688Z,55.38
2023-01-21T08:27:45.749Z,55.25
2023-01-21T08:32:49.064Z,55.85
2023-01-21T08:37:55.625Z,56.44
2023-01-21T08:43:03.245Z,55.45
2023-01-21T08:48:06.571Z,55.65
2023-01-21T08:53:11.694Z,55.17
2023-01-21T08:58:14.741Z,55.37
2023-01-21T09:03:20.381Z,55.08
2023-01-21T09:08:23.429Z,54.65
2023-01-21T09:13:29.094Z,55.47
2023-01-21T09:18:32.367Z,55.77
2023-01-21T09:23:36.799Z,54.87
2023-01-21T09:28:44.656Z,55.33
2023-01-21T09:33:50.698Z,54.97
2023-01-21T09:38:53.827Z,55.13
2023-01-21T09:44:15.331Z,55.34
2023-01-21T09:49:58.887Z,55.22
2023-01-21T09:55:03.408Z,55.03
2023-01-21T10:00:36.580Z,55.17
2023-01-21T10:05:45.166Z,55.08
2023-01-21T10:11:01.902Z,54.95
2023-01-21T10:16:19.515Z,54.66
2023-01-21T10:21:52.174Z,54.95
2023-01-21T10:26:55.205Z,54.40
2023-01-21T10:32:04.940Z,54.53
2023-01-21T10:37:15.577Z,54.36
2023-01-21T10:42:38.413Z,54.80
2023-01-21T10:47:50.568Z,54.79
2023-01-21T10:53:00.596Z,54.43
2023-01-21T10:58:19.002Z,54.58
2023-01-21T11:03:42.655Z,54.72
2023-01-21T11:08:50.596Z,54.43
2023-01-21T11:13:54.922Z,54.27
2023-01-21T11:18:58.199Z,54.10
2023-01-21T11:24:05.037Z,54.34
2023-01-21T11:29:16.904Z,54.30
2023-01-21T11:34:22.362Z,53.99
2023-01-21T11:39:27.403Z,54.51
2023-01-21T11:44:30.574Z,54.22
2023-01-21T11:49:33.705Z,54.55
2023-01-21T11:54:40.692Z,55.95
2023-01-21T11:59:47.905Z,55.84
2023-01-21T12:05:05.113Z,56.17
2023-01-21T12:10:10.754Z,55.96
2023-01-21T12:15:26.904Z,55.98
2023-01-21T12:20:41.607Z,56.41
2023-01-21T12:25:48.729Z,56.00
2023-01-21T12:31:04.449Z,56.63
2023-01-21T12:36:23.288Z,56.46
2023-01-21T12:41:29.207Z,57.03
2023-01-21T12:46:44.808Z,57.49
2023-01-21T12:51:51.989Z,57.42
2023-01-21T12:57:00.258Z,58.19
2023-01-21T13:02:40.155Z,57.79
2023-01-21T13:08:09.896Z,58.63
2023-01-21T13:13:19.955Z,58.91
2023-01-21T13:18:34.117Z,58.70
2023-01-21T13:24:13.001Z,59.29
2023-01-21T13:29:34.582Z,59.97
2023-01-21T13:34:56.026Z,60.21
2023-01-21T13:40:37.346Z,61.09
2023-01-21T13:46:10.632Z,61.46
2023-01-21T13:51:43.151Z,62.00
2023-01-21T13:56:57.614Z,62.98
2023-01-21T14:02:16.990Z,62.98
2023-01-21T14:07:36.633Z,62.65
2023-01-21T14:13:07.276Z,63.26
2023-01-21T14:18:31.345Z,62.52
2023-01-21T14:23:34.315Z,63.82
2023-01-21T14:29:14.652Z,63.76
2023-01-21T14:34:30.196Z,64.68
2023-01-21T14:40:08.267Z,64.98
2023-01-21T14:45:13.461Z,64.63
2023-01-21T14:50:53.908Z,64.63
2023-01-21T14:56:16.159Z,64.44
2023-01-21T15:01:46.561Z,65.21
2023-01-21T15:06:52.288Z,65.41
2023-01-21T15:12:05.984Z,65.28
2023-01-21T15:17:46.465Z,65.48
2023-01-21T15:23:04.675Z,65.70
2023-01-21T15:28:31.267Z,65.20
2023-01-21T15:33:39.883Z,65.49
2023-01-21T15:38:43.140Z,65.66
2023-01-21T15:43:57.541Z,65.94
2023-01-21T15:49:19.423Z,66.11
2023-01-21T15:54:32.827Z,66.14
2023-01-21T15:59:41.808Z,66.24
2023-01-21T16:04:50.038Z,65.97
2023-01-21T16:09:55.982Z,66.43
2023-01-21T16:15:10.657Z,66.14
2023-01-21T16:20:16.743Z,65.73
2023-01-21T16:25:23.281Z,65.65
2023-01-21T16:30:30.551Z,65.69
2023-01-21T16:35:45.457Z,65.76
2023-01-21T16:40:51.217Z,65.61
2023-01-21T16:46:12.053Z,66.11
2023-01-21T16:51:22.324Z,65.74
2023-01-21T16:56:28.549Z,65.86
2023-01-21T17:01:32.090Z,65.59
2023-01-21T17:06:35.157Z,65.54
2023-01-21T17:11:46.557Z,65.79
2023-01-21T17:16:50.374Z,66.00
2023-01-21T17:21:58.666Z,66.17
2023-01-21T17:27:09.455Z,65.78
2023-01-21T17:32:27.699Z,65.56
2023-01-21T17:43:28.358Z,65.84
2023-01-21T17:48:45.063Z,65.75
2023-01-21T17:54:18.206Z,65.47
2023-01-21T17:59:38.394Z,65.30
2023-01-21T18:04:43.047Z,65.74
2023-01-21T18:09:46.138Z,65.21
2023-01-21T18:14:49.211Z,64.87
2023-01-21T18:19:52.391Z,64.98
2023-01-21T18:24:56.371Z,65.25
2023-01-21T18:29:59.645Z,65.43
2023-01-21T18:35:02.669Z,65.06
2023-01-21T18:40:06.800Z,65.17
2023-01-21T18:45:15.151Z,64.74
2023-01-21T18:50:20.906Z,64.56
2023-01-21T18:55:29.389Z,64.78
2023-01-21T19:00:34.306Z,63.76
2023-01-21T19:05:39.635Z,64.25
2023-01-21T19:10:42.818Z,63.96
2023-01-21T19:15:47.384Z,63.75
2023-01-21T19:20:50.471Z,64.18
2023-01-21T19:25:58.630Z,64.02
2023-01-21T19:31:01.703Z,64.12
2023-01-21T19:36:15.126Z,64.23
2023-01-21T19:41:18.240Z,63.96
2023-01-21T19:46:24.108Z,64.36
2023-01-21T19:51:31.538Z,63.88
2023-01-21T19:56:34.982Z,63.82
2023-01-21T20:01:38.094Z,63.65
2023-01-21T20:06:42.194Z,64.04
2023-01-21T20:11:45.317Z,63.22
2023-01-21T20:16:51.844Z,63.78
2023-01-21T20:22:01.705Z,63.23
2023-01-21T20:27:09.349Z,63.54
2023-01-21T20:32:14.137Z,63.87
2023-01-21T20:37:18.049Z,63.92
2023-01-21T20:42:21.684Z,63.86
2023-01-21T20:47:37.825Z,63.54
2023-01-21T20:52:41.991Z,63.60
2023-01-21T20:57:45.798Z,63.60
2023-01-21T21:02:49.457Z,63.42
2023-01-21T21:07:53.044Z,64.10
2023-01-21T21:12:56.351Z,63.64
2023-01-21T21:18:00.137Z,63.85
2023-01-21T21:23:03.185Z,62.77
2023-01-21T21:28:06.343Z,63.20
2023-01-21T21:33:22.896Z,63.77
2023-01-21T21:38:26.373Z,63.30
2023-01-21T21:43:32.560Z,63.40
2023-01-21T21:48:38.603Z,63.75
2023-01-21T21:53:42.183Z,63.26
2023-01-21T21:58:45.597Z,63.61
2023-01-21T22:03:49.343Z,63.43
2023-01-21T22:08:54.630Z,63.47
2023-01-21T22:13:58.436Z,63.58
2023-01-21T22:19:01.921Z,63.57
2023-01-21T22:24:07.172Z,64.04
2023-01-21T22:29:10.460Z,64.09
2023-01-21T22:34:13.551Z,63.88
2023-01-21T22:39:16.782Z,63.70
2023-01-21T22:49:37.521Z,63.61
2023-01-21T22:54:40.530Z,64.30
2023-01-21T22:59:43.530Z,64.85
2023-01-21T23:04:46.617Z,64.72
2023-01-21T23:15:08.037Z,64.93
2023-01-21T23:20:11.513Z,63.95
2023-01-21T23:25:15.310Z,64.26
2023-01-21T23:30:24.767Z,64.19
2023-01-21T23:35:28.943Z,64.44
2023-01-21T23:40:32.025Z,64.14
2023-01-21T23:45:35.071Z,63.87
2023-01-21T23:50:38.084Z,64.00
2023-01-21T23:55:41.241Z,64.44
